Time;durP1;ratioP1;P1;durP2;ratioP2;P2;SDS_P1;SDS_P2;PMS_P1;PMS_P2;Temp;Humidity;BMP_temperature;BMP_pressure;BME280_temperature;BME280_humidity;BME280_pressure;Samples;Min_cycle;Max_cycle;Signal;HPM_P1;HPM_P2
2021/12/02 00:01:16;;;;;;;9.02;2.22;;;3.40;99.90;;;;;;5003741;28;20136;-72
2021/12/02 00:03:43;;;;;;;8.40;2.00;;;3.50;99.90;;;;;;5010470;28;20235;-69
2021/12/02 00:06:12;;;;;;;7.45;1.90;;;3.50;99.90;;;;;;5003051;28;20125;-71
2021/12/02 00:08:38;;;;;;;10.82;1.73;;;3.50;99.90;;;;;;5003217;28;20469;-70
2021/12/02 00:11:04;;;;;;;8.98;1.50;;;3.50;99.90;;;;;;5007929;28;20106;-71
2021/12/02 00:13:37;;;;;;;6.03;1.83;;;3.50;99.90;;;;;;5022761;28;20018;-70
2021/12/02 00:21:22;;;;;;;8.48;2.03;;;3.40;99.90;;;;;;5027285;28;20037;-69
2021/12/02 00:24:00;;;;;;;9.68;2.17;;;3.40;99.90;;;;;;5023607;28;20515;-70
2021/12/02 00:26:28;;;;;;;7.82;2.78;;;3.40;99.90;;;;;;5021742;28;20037;-69
2021/12/02 00:28:58;;;;;;;11.05;3.33;;;3.30;99.90;;;;;;5023067;28;20022;-71
2021/12/02 00:31:29;;;;;;;12.20;3.45;;;3.20;99.90;;;;;;5027844;28;20017;-71
2021/12/02 00:33:57;;;;;;;9.00;3.30;;;3.20;99.90;;;;;;5018868;28;20102;-70
2021/12/02 00:36:25;;;;;;;7.72;2.58;;;3.40;99.90;;;;;;5021974;28;20049;-70
2021/12/02 00:38:51;;;;;;;19.02;5.65;;;3.30;99.90;;;;;;5007664;28;20113;-71
2021/12/02 00:41:21;;;;;;;18.98;5.38;;;3.20;99.90;;;;;;5026436;28;20495;-70
2021/12/02 00:43:48;;;;;;;10.15;4.03;;;3.00;99.90;;;;;;5028857;28;20033;-70
2021/12/02 00:46:19;;;;;;;19.27;6.35;;;3.10;99.90;;;;;;5023186;28;20029;-71
2021/12/02 00:48:46;;;;;;;20.83;5.70;;;3.10;99.90;;;;;;5019249;28;20482;-70
2021/12/02 00:51:13;;;;;;;18.20;6.30;;;2.90;99.90;;;;;;5021802;28;20108;-72
2021/12/02 00:53:45;;;;;;;21.10;6.30;;;2.70;99.90;;;;;;5024276;28;20045;-71
2021/12/02 00:56:16;;;;;;;8.55;1.85;;;2.70;99.90;;;;;;5027850;28;20030;-72
2021/12/02 00:58:46;;;;;;;13.77;4.93;;;2.70;99.90;;;;;;5007380;28;20036;-70
2021/12/02 01:01:14;;;;;;;14.13;4.10;;;2.60;99.90;;;;;;5024356;28;20026;-70
2021/12/02 01:03:39;;;;;;;9.90;2.97;;;2.50;99.90;;;;;;5022934;28;20443;-71
2021/12/02 01:06:06;;;;;;;11.65;4.00;;;2.50;99.90;;;;;;5024689;28;20063;-70
2021/12/02 01:08:36;;;;;;;12.98;3.63;;;2.50;99.90;;;;;;5008942;28;20156;-70
2021/12/02 01:11:07;;;;;;;11.45;3.40;;;2.40;99.90;;;;;;5022217;28;20383;-70
2021/12/02 01:13:33;;;;;;;10.32;2.75;;;2.30;99.90;;;;;;5022104;28;20076;-70
2021/12/02 01:15:59;;;;;;;11.68;3.28;;;2.50;99.90;;;;;;5022472;28;20056;-69
2021/12/02 01:18:24;;;;;;;8.88;3.17;;;2.50;99.90;;;;;;5026692;28;20029;-68
2021/12/02 01:20:51;;;;;;;;;;;2.40;99.90;;;;;;5010938;28;20029;-70
2021/12/02 01:23:18;;;;;;;8.23;2.80;;;2.40;99.90;;;;;;5021444;28;19913;-69
2021/12/02 01:25:58;;;;;;;10.98;2.78;;;2.40;99.90;;;;;;5026744;28;20437;-71
2021/12/02 01:28:25;;;;;;;8.25;2.70;;;2.50;99.90;;;;;;5028144;28;20033;-69
2021/12/02 01:30:52;;;;;;;6.80;2.90;;;2.60;99.90;;;;;;5023185;28;20020;-70
2021/12/02 01:33:20;;;;;;;7.47;2.30;;;2.60;99.90;;;;;;5022029;28;20025;-71
2021/12/02 01:35:54;;;;;;;9.85;2.40;;;2.50;99.90;;;;;;5030270;28;20126;-69
2021/12/02 01:38:22;;;;;;;8.75;2.10;;;2.40;99.90;;;;;;5024698;28;20094;-71
2021/12/02 01:40:48;;;;;;;17.58;5.90;;;2.30;99.90;;;;;;5026015;28;20486;-71
2021/12/02 01:43:22;;;;;;;14.63;3.70;;;2.40;99.90;;;;;;5023347;28;20026;-69
2021/12/02 01:45:48;;;;;;;12.15;3.17;;;2.50;99.90;;;;;;5011204;28;20045;-70
2021/12/02 01:48:21;;;;;;;;;;;2.70;99.90;;;;;;5024455;28;20026;-69
2021/12/02 01:51:00;;;;;;;13.23;2.75;;;2.70;99.90;;;;;;5027974;28;19905;-69
2021/12/02 01:53:31;;;;;;;4.55;1.70;;;2.70;99.90;;;;;;5030104;28;20457;-71
2021/12/02 01:56:10;;;;;;;9.63;2.10;;;2.50;99.90;;;;;;5024524;28;20021;-69
2021/12/02 01:58:46;;;;;;;7.95;1.98;;;2.30;99.90;;;;;;5029630;28;20132;-71
2021/12/02 02:01:25;;;;;;;6.32;1.65;;;2.00;99.90;;;;;;5029746;28;20034;-71
2021/12/02 02:03:52;;;;;;;7.43;1.85;;;2.00;99.90;;;;;;4999347;28;20173;-69
2021/12/02 02:06:40;;;;;;;13.07;2.10;;;1.90;99.90;;;;;;5028952;28;20033;-70
2021/12/02 02:09:07;;;;;;;5.90;2.03;;;1.80;99.90;;;;;;5024940;28;20033;-70
2021/12/02 02:11:33;;;;;;;6.57;1.92;;;1.90;99.90;;;;;;4997448;28;20397;-70
2021/12/02 02:13:59;;;;;;;7.95;2.60;;;2.00;99.90;;;;;;5005069;28;20064;-71
2021/12/02 02:16:27;;;;;;;12.05;2.65;;;2.20;99.90;;;;;;5002335;28;20124;-70
2021/12/02 02:18:57;;;;;;;7.63;2.63;;;2.30;99.90;;;;;;5001927;28;20042;-70
2021/12/02 02:21:23;;;;;;;6.78;2.60;;;2.30;99.90;;;;;;5005631;28;20022;-72
2021/12/02 02:23:55;;;;;;;10.20;2.63;;;2.40;99.90;;;;;;5004752;28;20120;-70
2021/12/02 02:26:24;;;;;;;8.95;2.30;;;2.40;99.90;;;;;;5000460;28;20025;-70
2021/12/02 02:28:50;;;;;;;12.68;2.42;;;2.50;99.90;;;;;;5000037;28;20045;-70
2021/12/02 02:31:17;;;;;;;4.93;2.03;;;2.30;99.90;;;;;;5004241;28;20021;-70
2021/12/02 02:33:48;;;;;;;5.25;1.83;;;2.20;99.90;;;;;;5006808;28;20120;-70
2021/12/02 02:36:13;;;;;;;8.57;1.70;;;2.20;99.90;;;;;;5009398;28;20022;-71
2021/12/02 02:38:39;;;;;;;7.60;1.85;;;2.10;99.90;;;;;;5007575;28;20027;-70
2021/12/02 02:41:07;;;;;;;7.18;1.80;;;2.10;99.90;;;;;;5009673;28;20030;-69
2021/12/02 02:43:34;;;;;;;7.32;1.75;;;2.10;99.90;;;;;;5007237;28;20545;-70
2021/12/02 02:46:00;;;;;;;5.07;1.90;;;2.10;99.90;;;;;;5007741;28;20033;-70
2021/12/02 02:48:25;;;;;;;;;;;2.20;99.90;;;;;;5010023;28;20034;-69
2021/12/02 02:50:51;;;;;;;11.15;2.22;;;2.20;99.90;;;;;;5008498;28;19917;-70
2021/12/02 02:53:21;;;;;;;;;;;2.20;99.90;;;;;;5006338;28;20453;-70
2021/12/02 02:56:10;;;;;;;7.75;2.03;;;2.30;99.90;;;;;;5012523;28;19914;-69
2021/12/02 02:58:51;;;;;;;7.05;2.47;;;2.10;99.90;;;;;;5008721;28;20229;-69
2021/12/02 03:01:34;;;;;;;9.32;2.30;;;2.20;99.90;;;;;;5016565;28;20042;-70
2021/12/02 03:04:13;;;;;;;9.57;2.20;;;2.40;99.90;;;;;;5014882;28;20173;-71
2021/12/02 03:09:07;;;;;;;7.90;2.33;;;2.50;99.90;;;;;;5007359;28;20037;-71
2021/12/02 03:11:47;;;;;;;5.03;1.88;;;2.50;99.90;;;;;;5013811;28;20056;-70
2021/12/02 03:14:18;;;;;;;10.40;2.08;;;2.40;99.90;;;;;;5026912;28;20029;-69
2021/12/02 03:16:44;;;;;;;7.63;2.28;;;2.30;99.90;;;;;;5029100;28;20507;-70
2021/12/02 03:19:21;;;;;;;9.70;2.47;;;2.20;99.90;;;;;;5025191;28;20025;-69
2021/12/02 03:21:47;;;;;;;5.72;1.60;;;2.20;99.90;;;;;;5028602;28;20029;-70
2021/12/02 03:24:13;;;;;;;7.28;1.92;;;2.10;99.90;;;;;;5027307;28;20032;-70
2021/12/02 03:26:39;;;;;;;9.43;2.47;;;2.10;99.90;;;;;;5024045;28;20179;-70
2021/12/02 03:29:05;;;;;;;7.45;2.10;;;2.10;99.90;;;;;;5009698;28;20116;-70
2021/12/02 03:31:31;;;;;;;;;;;2.10;99.90;;;;;;5027478;28;20116;-70
2021/12/02 03:33:57;;;;;;;6.65;2.10;;;2.20;99.90;;;;;;5026818;28;20035;-70
2021/12/02 03:36:22;;;;;;;;;;;2.10;99.90;;;;;;5030799;28;20017;-70
2021/12/02 03:38:48;;;;;;;5.53;2.38;;;2.00;99.90;;;;;;5028848;28;19967;-70
2021/12/02 03:41:14;;;;;;;12.73;2.30;;;2.00;99.90;;;;;;5015429;28;20117;-70
2021/12/02 03:43:43;;;;;;;8.13;2.63;;;2.00;99.90;;;;;;5031570;28;20064;-69
2021/12/02 03:46:10;;;;;;;10.20;2.50;;;2.00;99.90;;;;;;5023558;28;20022;-70
2021/12/02 03:48:37;;;;;;;11.52;2.67;;;2.00;99.90;;;;;;5024997;28;20029;-69
2021/12/02 03:51:04;;;;;;;5.88;2.05;;;2.10;99.90;;;;;;5028082;28;20022;-70
2021/12/02 03:53:30;;;;;;;7.40;2.13;;;2.20;99.90;;;;;;5030681;28;20036;-70
2021/12/02 03:55:56;;;;;;;8.32;2.65;;;2.00;99.90;;;;;;5027477;28;20025;-70
2021/12/02 03:58:22;;;;;;;;;;;2.00;99.90;;;;;;5014510;28;20041;-70
2021/12/02 04:00:47;;;;;;;6.57;1.83;;;2.00;99.90;;;;;;5031619;28;19916;-70
2021/12/02 04:03:13;;;;;;;5.57;2.10;;;2.00;99.90;;;;;;5029147;28;20029;-69
2021/12/02 04:05:39;;;;;;;8.00;2.22;;;2.00;99.90;;;;;;5026410;28;20044;-69
2021/12/02 04:08:05;;;;;;;8.13;2.13;;;2.00;99.90;;;;;;5028446;28;20057;-70
2021/12/02 04:10:33;;;;;;;9.43;2.50;;;2.00;99.90;;;;;;5022977;28;20112;-70
2021/12/02 04:13:08;;;;;;;7.22;2.40;;;2.10;99.90;;;;;;5026410;28;20042;-69
2021/12/02 04:15:38;;;;;;;13.32;2.70;;;2.10;99.90;;;;;;5033146;28;20029;-69
2021/12/02 04:18:03;;;;;;;6.75;2.40;;;1.90;99.90;;;;;;5021597;28;20063;-69
2021/12/02 04:20:29;;;;;;;8.48;2.22;;;1.80;99.90;;;;;;5021015;28;20493;-69
2021/12/02 04:22:56;;;;;;;;;;;1.70;99.90;;;;;;5031592;28;20036;-70
2021/12/02 04:25:22;;;;;;;11.27;3.17;;;1.70;99.90;;;;;;5032980;28;20008;-70
2021/12/02 04:27:49;;;;;;;17.95;3.08;;;1.60;99.90;;;;;;5009761;28;20030;-70
2021/12/02 04:30:19;;;;;;;8.65;2.45;;;1.70;99.90;;;;;;5029953;28;20076;-71
2021/12/02 04:32:45;;;;;;;7.28;2.13;;;1.70;99.90;;;;;;5025604;28;20120;-69
2021/12/02 04:35:11;;;;;;;9.98;2.20;;;1.70;99.90;;;;;;5025544;28;20663;-69
2021/12/02 04:37:38;;;;;;;5.30;1.73;;;1.70;99.90;;;;;;5030662;28;20396;-71
2021/12/02 04:40:06;;;;;;;9.18;2.05;;;1.80;99.90;;;;;;5025078;28;20388;-69
2021/12/02 04:42:31;;;;;;;8.25;2.00;;;1.90;99.90;;;;;;5030338;28;20034;-69
2021/12/02 04:44:57;;;;;;;8.77;2.38;;;2.00;99.90;;;;;;5031522;28;20026;-70
2021/12/02 04:47:23;;;;;;;6.90;2.13;;;2.00;99.90;;;;;;5031695;28;20053;-70
2021/12/02 04:49:48;;;;;;;;;;;2.00;99.90;;;;;;5030401;28;20041;-69
2021/12/02 04:52:14;;;;;;;9.57;1.85;;;2.10;99.90;;;;;;5007103;28;19916;-70
2021/12/02 04:54:40;;;;;;;8.70;2.10;;;2.00;99.90;;;;;;5021948;28;20438;-69
2021/12/02 04:57:06;;;;;;;;;;;2.10;99.90;;;;;;5020880;28;20388;-68
2021/12/02 04:59:32;;;;;;;8.52;1.70;;;2.20;99.90;;;;;;5025606;28;19920;-70
2021/12/02 05:01:57;;;;;;;10.88;2.25;;;2.30;99.90;;;;;;5028457;28;20428;-69
2021/12/02 05:04:23;;;;;;;8.25;1.40;;;2.30;99.90;;;;;;5025157;28;20038;-70
2021/12/02 05:06:49;;;;;;;5.70;1.70;;;2.20;99.90;;;;;;5009365;28;20045;-69
2021/12/02 05:09:14;;;;;;;;;;;2.20;99.90;;;;;;5025831;28;20112;-70
2021/12/02 05:11:40;;;;;;;4.80;1.70;;;2.30;99.90;;;;;;5028744;28;19921;-70
2021/12/02 05:14:08;;;;;;;;;;;2.40;99.90;;;;;;5022911;28;20025;-70
2021/12/02 05:16:34;;;;;;;12.40;1.95;;;2.40;99.90;;;;;;5030004;28;19959;-70
2021/12/02 05:19:00;;;;;;;7.18;1.90;;;2.60;99.90;;;;;;5028679;28;20432;-71
2021/12/02 05:21:26;;;;;;;6.93;2.00;;;2.60;99.90;;;;;;5027298;28;20107;-69
2021/12/02 05:23:54;;;;;;;10.90;1.77;;;2.70;99.90;;;;;;5029202;28;20083;-70
2021/12/02 05:26:21;;;;;;;5.45;2.00;;;2.70;99.90;;;;;;5030721;28;20034;-70
2021/12/02 05:28:47;;;;;;;9.55;2.03;;;2.90;99.90;;;;;;5029610;28;20392;-70
2021/12/02 05:31:12;;;;;;;10.82;2.00;;;2.90;99.90;;;;;;5027245;28;20022;-69
2021/12/02 05:33:38;;;;;;;8.68;1.90;;;2.90;99.90;;;;;;5031029;28;20031;-71
2021/12/02 05:36:04;;;;;;;7.55;1.60;;;2.90;99.90;;;;;;5030716;28;20021;-71
2021/12/02 05:38:29;;;;;;;21.35;2.85;;;2.90;99.90;;;;;;5019815;28;20020;-70
2021/12/02 05:40:55;;;;;;;9.65;2.33;;;2.90;99.90;;;;;;5026885;28;20058;-70
2021/12/02 05:43:21;;;;;;;8.45;1.90;;;2.90;99.90;;;;;;5022869;28;20022;-70
2021/12/02 05:45:46;;;;;;;14.43;2.20;;;3.00;99.90;;;;;;5029628;28;20033;-70
2021/12/02 05:48:12;;;;;;;6.28;1.80;;;3.00;99.90;;;;;;5015288;28;20132;-69
2021/12/02 05:50:38;;;;;;;8.40;2.10;;;3.10;99.90;;;;;;5021840;28;20108;-70
2021/12/02 05:53:04;;;;;;;9.43;1.90;;;3.10;99.90;;;;;;5019086;28;20022;-70
2021/12/02 05:55:29;;;;;;;4.57;1.98;;;3.10;99.90;;;;;;5026340;28;20445;-70
2021/12/02 05:57:55;;;;;;;11.73;2.13;;;3.10;99.90;;;;;;5006348;28;20413;-69
2021/12/02 06:00:21;;;;;;;;;;;3.20;99.90;;;;;;5020111;28;20018;-70
2021/12/02 06:02:47;;;;;;;5.75;2.15;;;3.20;99.90;;;;;;5025606;28;19995;-69
2021/12/02 06:05:17;;;;;;;8.27;2.00;;;3.20;99.90;;;;;;5022140;28;20167;-71
2021/12/02 06:07:44;;;;;;;6.43;1.70;;;3.20;99.90;;;;;;5021729;28;20121;-73
2021/12/02 06:10:10;;;;;;;6.97;2.13;;;3.20;99.90;;;;;;5026381;28;20120;-69
2021/12/02 06:12:36;;;;;;;10.63;2.03;;;3.30;99.90;;;;;;5024704;28;20128;-69
2021/12/02 06:15:02;;;;;;;9.63;2.08;;;3.30;99.90;;;;;;5009145;28;20072;-70
2021/12/02 06:17:27;;;;;;;7.97;2.00;;;3.40;99.90;;;;;;5018973;28;20065;-69
2021/12/02 06:19:53;;;;;;;12.00;1.63;;;3.50;99.90;;;;;;5024455;28;20033;-69
2021/12/02 06:22:19;;;;;;;4.53;1.63;;;3.50;99.90;;;;;;5028057;28;20499;-72
2021/12/02 06:24:48;;;;;;;6.32;2.08;;;3.60;99.90;;;;;;5026514;28;20079;-70
2021/12/02 06:27:14;;;;;;;7.90;1.83;;;3.60;99.90;;;;;;5020362;28;20037;-70
2021/12/02 06:29:40;;;;;;;4.00;1.30;;;3.60;99.90;;;;;;5008911;28;20030;-70
2021/12/02 06:32:07;;;;;;;;;;;3.70;99.90;;;;;;5013390;28;20108;-68
2021/12/02 06:34:33;;;;;;;;;;;3.90;99.90;;;;;;5032200;28;19909;-70
2021/12/02 06:36:59;;;;;;;5.00;1.20;;;3.90;99.90;;;;;;5030706;28;19916;-69
2021/12/02 06:39:24;;;;;;;6.35;1.92;;;3.90;99.90;;;;;;5030350;28;20038;-68
2021/12/02 06:41:50;;;;;;;9.70;1.65;;;4.00;99.90;;;;;;5030282;28;20363;-71
2021/12/02 06:44:16;;;;;;;7.72;1.73;;;4.00;99.90;;;;;;5030443;28;20389;-69
2021/12/02 06:46:42;;;;;;;7.97;1.83;;;4.00;99.90;;;;;;5029994;28;20112;-71
2021/12/02 06:49:07;;;;;;;8.85;2.00;;;4.00;99.90;;;;;;5038285;28;20018;-71
2021/12/02 06:51:33;;;;;;;7.70;1.58;;;4.00;99.90;;;;;;5035176;28;20105;-71
2021/12/02 06:53:59;;;;;;;17.10;2.00;;;4.10;99.90;;;;;;5012516;28;20132;-70
2021/12/02 06:56:25;;;;;;;6.82;1.60;;;4.20;99.90;;;;;;5028267;28;20484;-69
2021/12/02 06:58:50;;;;;;;10.80;1.67;;;4.30;99.90;;;;;;5025427;28;20096;-70
2021/12/02 07:01:16;;;;;;;10.95;2.70;;;4.30;99.90;;;;;;5023742;28;20030;-69
2021/12/02 07:03:42;;;;;;;10.32;2.88;;;4.20;99.90;;;;;;5030308;28;20569;-71
2021/12/02 07:06:08;;;;;;;8.85;2.30;;;4.10;99.90;;;;;;5035728;28;20037;-71
2021/12/02 07:08:33;;;;;;;7.00;1.98;;;4.00;99.90;;;;;;5032017;28;20041;-70
2021/12/02 07:11:00;;;;;;;6.10;2.20;;;4.00;99.90;;;;;;5030674;28;20117;-69
2021/12/02 07:13:26;;;;;;;7.03;1.90;;;4.00;99.90;;;;;;5030447;28;20033;-69
2021/12/02 07:15:52;;;;;;;6.85;1.98;;;4.00;99.90;;;;;;5023403;28;20026;-70
2021/12/02 07:18:18;;;;;;;8.55;2.05;;;4.00;99.90;;;;;;5024744;28;20134;-69
2021/12/02 07:20:47;;;;;;;;;;;4.00;99.90;;;;;;5023581;28;20170;-70
2021/12/02 07:23:14;;;;;;;9.30;2.17;;;4.10;99.90;;;;;;5026091;28;19952;-70
2021/12/02 07:25:40;;;;;;;9.35;1.75;;;4.10;99.90;;;;;;5028649;28;20029;-69
2021/12/02 07:28:09;;;;;;;9.55;1.95;;;4.10;99.90;;;;;;5030689;28;20393;-70
2021/12/02 07:30:34;;;;;;;9.10;1.60;;;4.00;99.90;;;;;;5027531;28;20025;-69
2021/12/02 07:33:02;;;;;;;9.73;1.63;;;4.00;99.90;;;;;;5023073;28;20033;-68
2021/12/02 07:35:28;;;;;;;10.90;1.40;;;4.00;99.90;;;;;;5003703;28;20041;-69
2021/12/02 07:38:00;;;;;;;8.38;1.42;;;3.90;99.90;;;;;;5023180;28;20033;-70
2021/12/02 07:40:28;;;;;;;6.40;1.25;;;4.00;99.90;;;;;;5023865;28;20032;-70
2021/12/02 07:42:54;;;;;;;15.13;1.90;;;3.90;99.90;;;;;;5024392;28;20365;-70
2021/12/02 07:45:23;;;;;;;7.63;1.90;;;3.90;99.90;;;;;;5007858;28;20577;-70
2021/12/02 07:47:49;;;;;;;4.60;1.50;;;4.00;99.90;;;;;;5022354;28;20029;-71
2021/12/02 07:50:16;;;;;;;;;;;3.90;99.90;;;;;;5025346;28;20554;-69
2021/12/02 07:52:52;;;;;;;8.87;1.60;;;3.90;99.90;;;;;;5027003;28;19909;-73
2021/12/02 07:55:18;;;;;;;;;;;4.00;99.90;;;;;;5027082;28;20291;-70
2021/12/02 07:57:45;;;;;;;5.68;1.50;;;4.00;99.90;;;;;;5029677;28;19913;-71
2021/12/02 08:00:13;;;;;;;8.35;1.38;;;4.00;99.90;;;;;;5021720;28;20156;-71
2021/12/02 08:02:43;;;;;;;9.45;2.00;;;4.10;99.90;;;;;;5024229;28;20117;-70
2021/12/02 08:05:09;;;;;;;7.45;1.80;;;4.00;99.90;;;;;;5030269;28;20082;-71
2021/12/02 08:07:38;;;;;;;7.28;1.63;;;4.10;99.90;;;;;;5027469;28;20045;-72
2021/12/02 08:10:05;;;;;;;9.90;2.00;;;4.10;99.90;;;;;;5031257;28;20125;-71
2021/12/02 08:12:30;;;;;;;11.07;1.70;;;4.10;99.90;;;;;;5026042;28;20049;-71
2021/12/02 08:14:56;;;;;;;18.67;1.80;;;4.10;99.90;;;;;;5024591;28;20041;-73
2021/12/02 08:17:22;;;;;;;8.25;2.08;;;4.10;99.90;;;;;;5016756;28;20030;-72
2021/12/02 08:19:47;;;;;;;6.68;1.92;;;4.20;99.90;;;;;;5011698;28;20025;-72
2021/12/02 08:22:13;;;;;;;15.15;2.38;;;4.20;99.90;;;;;;5030251;28;20036;-71
2021/12/02 08:24:39;;;;;;;9.38;2.53;;;4.00;99.90;;;;;;5010632;28;20035;-72
2021/12/02 08:27:05;;;;;;;7.10;2.90;;;4.10;99.90;;;;;;5006249;28;20037;-71
2021/12/02 08:29:32;;;;;;;11.70;2.60;;;4.10;99.90;;;;;;5007068;28;20121;-71
2021/12/02 08:31:59;;;;;;;7.18;2.28;;;4.10;99.90;;;;;;5028062;28;20103;-70
2021/12/02 08:34:25;;;;;;;9.88;2.95;;;4.00;99.90;;;;;;5023135;28;20480;-73
2021/12/02 08:36:53;;;;;;;9.43;2.40;;;4.00;99.90;;;;;;5024289;28;20026;-72
2021/12/02 08:39:24;;;;;;;8.68;2.53;;;3.90;99.90;;;;;;5027269;28;20022;-72
2021/12/02 08:41:52;;;;;;;10.27;2.30;;;3.90;99.90;;;;;;5024161;28;20037;-73
2021/12/02 08:44:18;;;;;;;13.70;2.45;;;4.10;99.90;;;;;;4990756;28;20026;-72
2021/12/02 08:46:44;;;;;;;;;;;4.10;99.90;;;;;;5006631;28;20038;-69
2021/12/02 08:49:10;;;;;;;12.57;2.70;;;4.10;99.90;;;;;;5022911;28;20395;-70
2021/12/02 08:51:36;;;;;;;15.73;3.03;;;4.10;99.90;;;;;;5022547;28;20014;-72
2021/12/02 08:54:03;;;;;;;12.50;2.58;;;4.20;99.90;;;;;;5003745;28;20041;-73
2021/12/02 08:56:28;;;;;;;11.02;3.05;;;4.20;99.90;;;;;;5020307;28;20061;-72
2021/12/02 08:58:54;;;;;;;7.55;1.70;;;4.30;99.90;;;;;;5017443;28;20110;-71
2021/12/02 09:01:20;;;;;;;13.13;2.92;;;4.20;99.90;;;;;;5021346;28;20038;-71
2021/12/02 09:03:46;;;;;;;8.30;2.33;;;4.20;99.90;;;;;;5021242;28;20926;-71
2021/12/02 09:06:12;;;;;;;10.98;2.22;;;4.20;99.90;;;;;;5020790;28;20051;-70
2021/12/02 09:08:40;;;;;;;11.75;2.00;;;4.20;99.90;;;;;;5021435;28;20380;-71
2021/12/02 09:11:05;;;;;;;11.23;1.40;;;4.20;99.90;;;;;;5022985;28;20070;-72
2021/12/02 09:13:32;;;;;;;9.02;1.33;;;4.30;99.90;;;;;;5020254;28;20108;-71
2021/12/02 09:15:58;;;;;;;7.13;1.20;;;4.40;99.90;;;;;;5023247;28;20041;-72
2021/12/02 09:18:24;;;;;;;;;;;4.40;99.90;;;;;;5022216;28;20033;-73
2021/12/02 09:20:50;;;;;;;14.80;1.88;;;4.50;99.90;;;;;;5024091;28;19912;-71
2021/12/02 09:23:16;;;;;;;25.48;2.60;;;4.60;99.90;;;;;;5023492;28;20379;-72
2021/12/02 09:25:42;;;;;;;11.02;0.85;;;4.70;99.90;;;;;;5025151;28;20372;-71
2021/12/02 09:28:09;;;;;;;9.00;1.02;;;4.70;99.90;;;;;;5028050;28;20880;-71
2021/12/02 09:30:35;;;;;;;6.32;0.95;;;4.80;99.90;;;;;;5028214;28;20018;-71
2021/12/02 09:33:01;;;;;;;;;;;4.80;99.90;;;;;;5028024;28;20030;-71
2021/12/02 09:35:27;;;;;;;8.52;1.08;;;4.80;99.90;;;;;;5012679;28;19985;-71
2021/12/02 09:37:53;;;;;;;11.32;1.23;;;4.90;99.90;;;;;;5029419;28;20096;-71
2021/12/02 09:40:19;;;;;;;12.02;1.27;;;4.90;99.90;;;;;;5019201;28;20033;-72
2021/12/02 09:42:45;;;;;;;6.38;1.40;;;5.00;99.90;;;;;;5029477;28;20129;-70
2021/12/02 09:45:12;;;;;;;6.00;1.13;;;5.00;99.90;;;;;;5022710;28;20037;-71
2021/12/02 09:47:41;;;;;;;6.30;0.80;;;5.00;99.90;;;;;;5020989;28;20113;-70
2021/12/02 09:50:22;;;;;;;3.70;1.20;;;5.00;99.90;;;;;;5018829;28;20032;-71
2021/12/02 09:52:48;;;;;;;7.93;1.02;;;5.00;99.90;;;;;;5021713;28;20841;-71
2021/12/02 09:57:48;;;;;;;6.65;0.90;;;5.00;99.90;;;;;;5017626;28;20395;-72
2021/12/02 10:00:25;;;;;;;8.23;1.02;;;5.00;99.90;;;;;;5021250;28;20712;-72
2021/12/02 10:02:58;;;;;;;8.02;1.20;;;5.00;99.90;;;;;;5022792;28;20091;-70
2021/12/02 10:05:56;;;;;;;5.03;0.80;;;5.00;99.90;;;;;;5021202;28;20129;-71
2021/12/02 10:08:29;;;;;;;9.20;1.23;;;5.00;99.90;;;;;;5021623;28;20033;-70
2021/12/02 10:11:07;;;;;;;6.18;1.13;;;5.00;99.90;;;;;;5022278;28;20029;-70
2021/12/02 10:13:44;;;;;;;9.10;1.15;;;5.00;99.90;;;;;;5021859;28;20158;-70
2021/12/02 10:16:20;;;;;;;;;;;5.00;99.90;;;;;;5023318;28;20194;-71
2021/12/02 10:19:01;;;;;;;3.78;0.90;;;5.00;99.90;;;;;;5003015;28;19935;-69
2021/12/02 10:21:55;;;;;;;7.03;1.00;;;5.00;99.90;;;;;;5018005;28;20519;-72
2021/12/02 10:24:26;;;;;;;5.15;1.13;;;5.00;99.90;;;;;;5023738;28;20404;-71
2021/12/02 10:26:55;;;;;;;4.72;0.65;;;5.10;99.90;;;;;;5027582;28;20033;-70
2021/12/02 10:29:24;;;;;;;8.02;0.95;;;5.10;99.90;;;;;;5027105;28;20026;-69
2021/12/02 10:32:04;;;;;;;7.68;1.10;;;5.10;99.90;;;;;;5028849;28;20029;-70
2021/12/02 10:34:30;;;;;;;5.40;1.20;;;5.10;99.90;;;;;;5030973;28;20365;-71
2021/12/02 10:37:09;;;;;;;3.33;0.85;;;5.20;99.90;;;;;;5024110;28;20037;-71
2021/12/02 10:39:35;;;;;;;6.88;0.93;;;5.20;99.90;;;;;;5035673;28;20033;-70
2021/12/02 10:42:06;;;;;;;5.32;0.75;;;5.10;99.90;;;;;;5027324;28;20060;-71
2021/12/02 10:44:34;;;;;;;6.40;0.77;;;5.20;99.90;;;;;;5030965;28;20450;-71
2021/12/02 10:47:22;;;;;;;5.13;1.00;;;5.20;99.90;;;;;;5025221;28;20135;-73
2021/12/02 10:49:55;;;;;;;10.25;1.42;;;5.20;99.90;;;;;;5006414;28;20038;-70
2021/12/02 10:52:24;;;;;;;3.55;0.98;;;5.20;99.90;;;;;;5012759;28;20080;-72
2021/12/02 10:55:19;;;;;;;11.63;2.00;;;5.20;99.90;;;;;;5033112;28;20022;-72
2021/12/02 10:57:54;;;;;;;9.18;2.63;;;5.20;99.90;;;;;;5015044;28;20033;-73
2021/12/02 11:00:28;;;;;;;16.83;1.65;;;5.20;99.90;;;;;;5032170;28;20440;-71
2021/12/02 11:02:56;;;;;;;8.55;1.52;;;5.30;99.90;;;;;;5030235;28;20022;-69
2021/12/02 11:05:32;;;;;;;15.85;2.13;;;5.30;99.90;;;;;;5009922;28;20072;-72
2021/12/02 11:08:05;;;;;;;6.55;0.90;;;5.30;99.90;;;;;;5035194;28;20049;-73
2021/12/02 11:10:44;;;;;;;7.40;1.33;;;5.40;99.90;;;;;;5032696;28;20477;-71
2021/12/02 11:13:17;;;;;;;3.13;0.90;;;5.40;99.90;;;;;;5032158;28;20045;-70
2021/12/02 11:15:43;;;;;;;8.07;1.33;;;5.40;99.90;;;;;;5034179;28;20029;-70
2021/12/02 11:18:15;;;;;;;4.63;0.77;;;5.40;99.90;;;;;;5034625;28;20180;-71
2021/12/02 11:20:46;;;;;;;8.63;0.93;;;5.50;99.90;;;;;;5032089;28;20033;-71
2021/12/02 11:23:19;;;;;;;6.18;1.00;;;5.40;99.90;;;;;;5042069;28;20021;-70
2021/12/02 11:25:59;;;;;;;5.82;1.23;;;5.40;99.90;;;;;;5029261;28;20444;-70
2021/12/02 11:28:28;;;;;;;6.75;1.15;;;5.50;99.90;;;;;;5029406;28;20025;-71
2021/12/02 11:30:57;;;;;;;6.38;0.85;;;5.60;99.90;;;;;;5007147;28;20109;-70
2021/12/02 11:33:38;;;;;;;3.22;0.73;;;5.60;99.90;;;;;;5032986;28;20030;-71
2021/12/02 11:36:05;;;;;;;10.90;1.15;;;5.60;99.90;;;;;;5014574;28;20040;-71
2021/12/02 11:38:32;;;;;;;6.63;1.20;;;5.60;99.90;;;;;;5015401;28;20025;-72
2021/12/02 11:41:04;;;;;;;11.90;1.17;;;5.60;99.90;;;;;;5028990;28;20029;-72
2021/12/02 11:43:33;;;;;;;5.32;0.80;;;5.60;99.90;;;;;;5028381;28;20124;-71
2021/12/02 11:46:00;;;;;;;8.55;1.27;;;5.60;99.90;;;;;;5019729;28;20034;-71
2021/12/02 11:48:32;;;;;;;21.17;1.63;;;5.60;99.90;;;;;;5018777;28;20432;-70
2021/12/02 11:51:00;;;;;;;12.50;1.30;;;5.60;99.90;;;;;;5026144;28;20050;-71
2021/12/02 11:53:26;;;;;;;5.47;0.95;;;5.60;99.90;;;;;;5028885;28;20033;-71
2021/12/02 11:55:53;;;;;;;;;;;5.60;99.90;;;;;;5022166;28;20550;-69
2021/12/02 11:58:19;;;;;;;9.25;1.40;;;5.60;99.90;;;;;;5020357;28;19910;-70
2021/12/02 12:00:46;;;;;;;13.65;1.15;;;5.50;99.90;;;;;;5010193;28;20030;-70
2021/12/02 12:03:15;;;;;;;3.83;0.90;;;5.50;99.90;;;;;;5032396;28;20473;-70
2021/12/02 12:05:52;;;;;;;4.95;0.88;;;5.60;99.90;;;;;;5030272;28;20488;-71
2021/12/02 12:08:39;;;;;;;5.38;0.88;;;5.60;99.90;;;;;;5014677;28;20041;-71
2021/12/02 12:11:25;;;;;;;21.23;1.77;;;5.70;99.90;;;;;;5029804;28;20018;-71
2021/12/02 12:13:55;;;;;;;11.30;1.83;;;5.70;99.90;;;;;;5026442;28;20029;-71
2021/12/02 12:16:26;;;;;;;2.70;0.80;;;5.80;99.90;;;;;;5033774;28;20372;-71
2021/12/02 12:18:56;;;;;;;2.97;0.77;;;5.80;99.90;;;;;;5023525;28;20117;-70
2021/12/02 12:21:39;;;;;;;7.95;1.13;;;5.80;99.90;;;;;;5012054;28;20083;-71
2021/12/02 12:24:06;;;;;;;21.77;1.80;;;5.80;99.90;;;;;;5028548;28;20033;-70
2021/12/02 12:26:38;;;;;;;7.15;1.17;;;5.90;99.90;;;;;;5012902;28;20083;-69
2021/12/02 12:29:06;;;;;;;7.28;1.02;;;6.00;99.90;;;;;;5030089;28;20049;-69
2021/12/02 12:34:41;;;;;;;4.05;0.82;;;5.90;99.90;;;;;;5021678;28;20083;-70
2021/12/02 12:40:06;;;;;;;10.32;1.92;;;6.00;99.90;;;;;;5019593;28;20045;-69
2021/12/02 12:42:32;;;;;;;12.20;1.67;;;6.00;99.90;;;;;;5032784;28;20030;-69
2021/12/02 12:45:00;;;;;;;6.70;1.00;;;6.00;99.90;;;;;;5028593;28;20029;-70
2021/12/02 12:47:43;;;;;;;7.03;0.82;;;6.10;99.90;;;;;;5030124;28;20167;-69
2021/12/02 12:50:27;;;;;;;6.18;0.95;;;6.10;99.90;;;;;;5033278;28;20033;-70
2021/12/02 12:53:19;;;;;;;8.15;0.90;;;6.00;99.90;;;;;;5028506;28;20464;-70
2021/12/02 12:55:54;;;;;;;12.18;1.42;;;6.00;99.90;;;;;;5030900;28;20041;-70
2021/12/02 12:58:22;;;;;;;15.00;1.10;;;6.00;99.90;;;;;;5025899;28;20484;-72
2021/12/02 13:00:55;;;;;;;16.10;1.70;;;5.90;99.90;;;;;;5031103;28;20433;-71
2021/12/02 13:03:45;;;;;;;21.65;1.63;;;5.90;99.90;;;;;;5031531;28;20025;-70
2021/12/02 13:06:20;;;;;;;8.32;1.00;;;5.90;99.90;;;;;;5028310;28;20029;-70
2021/12/02 13:08:50;;;;;;;8.70;1.05;;;6.00;99.90;;;;;;5034349;28;20026;-69
2021/12/02 13:11:18;;;;;;;4.15;0.80;;;6.00;99.90;;;;;;5032884;28;20389;-70
2021/12/02 13:13:46;;;;;;;6.55;1.50;;;6.00;99.90;;;;;;5028783;28;20472;-69
2021/12/02 13:16:18;;;;;;;11.43;1.30;;;6.10;99.90;;;;;;5007617;28;20021;-69
2021/12/02 13:18:59;;;;;;;6.18;1.00;;;6.10;99.90;;;;;;5032717;28;20037;-70
2021/12/02 13:21:31;;;;;;;15.82;1.35;;;6.20;99.90;;;;;;4999787;28;20045;-69
2021/12/02 13:24:00;;;;;;;12.05;1.33;;;6.20;99.90;;;;;;5029753;28;20096;-69
2021/12/02 13:26:33;;;;;;;21.83;1.83;;;6.20;99.90;;;;;;5022460;28;20025;-68